sensor_id;sensor_type;location;lat;lon;timestamp;pressure;altitude;pressure_sealevel;temperature;humidity
72428;BME280;60419;48.880;18.036;2023-12-20T00:02:06;99044.25;;;0.97;89.55
72428;BME280;60419;48.880;18.036;2023-12-20T00:04:51;99044.19;;;0.75;89.90
72428;BME280;60419;48.880;18.036;2023-12-20T00:07:36;99045.88;;;0.81;89.73
72428;BME280;60419;48.880;18.036;2023-12-20T00:10:22;99026.16;;;0.48;90.40
72428;BME280;60419;48.880;18.036;2023-12-20T00:13:07;98998.22;;;0.29;91.03
72428;BME280;60419;48.880;18.036;2023-12-20T00:15:53;99021.13;;;0.47;92.04
72428;BME280;60419;48.880;18.036;2023-12-20T00:18:38;99024.59;;;0.64;90.90
72428;BME280;60419;48.880;18.036;2023-12-20T00:21:23;99019.44;;;0.91;89.18
72428;BME280;60419;48.880;18.036;2023-12-20T00:24:09;99009.91;;;0.45;90.17
72428;BME280;60419;48.880;18.036;2023-12-20T00:26:54;99012.78;;;0.43;91.14
72428;BME280;60419;48.880;18.036;2023-12-20T00:29:39;99001.84;;;0.23;91.88
72428;BME280;60419;48.880;18.036;2023-12-20T00:32:25;98996.44;;;0.35;90.96
72428;BME280;60419;48.880;18.036;2023-12-20T00:35:10;98987.19;;;0.37;90.83
72428;BME280;60419;48.880;18.036;2023-12-20T00:37:55;99001.88;;;0.73;90.63
72428;BME280;60419;48.880;18.036;2023-12-20T00:40:41;99004.22;;;0.70;89.76
72428;BME280;60419;48.880;18.036;2023-12-20T00:43:26;98992.75;;;0.52;89.64
72428;BME280;60419;48.880;18.036;2023-12-20T00:46:12;99000.88;;;0.46;90.31
72428;BME280;60419;48.880;18.036;2023-12-20T00:48:57;98990.84;;;0.65;89.51
72428;BME280;60419;48.880;18.036;2023-12-20T00:51:42;98993.34;;;0.88;89.34
72428;BME280;60419;48.880;18.036;2023-12-20T00:54:28;98982.38;;;0.68;89.59
72428;BME280;60419;48.880;18.036;2023-12-20T00:57:14;98980.75;;;0.33;90.09
72428;BME280;60419;48.880;18.036;2023-12-20T01:00:00;98977.56;;;0.19;92.09
72428;BME280;60419;48.880;18.036;2023-12-20T01:02:46;98968.91;;;-0.33;93.38
72428;BME280;60419;48.880;18.036;2023-12-20T01:05:34;98962.91;;;-0.29;93.74
72428;BME280;60419;48.880;18.036;2023-12-20T01:08:19;98970.38;;;0.03;93.38
72428;BME280;60419;48.880;18.036;2023-12-20T01:11:05;98962.59;;;0.13;92.92
72428;BME280;60419;48.880;18.036;2023-12-20T01:13:51;98945.88;;;0.13;92.40
72428;BME280;60419;48.880;18.036;2023-12-20T01:16:36;98945.56;;;0.43;91.87
72428;BME280;60419;48.880;18.036;2023-12-20T01:19:21;98943.41;;;0.57;89.55
72428;BME280;60419;48.880;18.036;2023-12-20T01:22:07;98949.00;;;0.77;88.95
72428;BME280;60419;48.880;18.036;2023-12-20T01:24:53;98937.06;;;0.80;88.60
72428;BME280;60419;48.880;18.036;2023-12-20T01:27:38;98936.06;;;1.03;88.17
72428;BME280;60419;48.880;18.036;2023-12-20T01:30:24;98929.84;;;1.14;87.51
72428;BME280;60419;48.880;18.036;2023-12-20T01:33:09;98931.31;;;0.49;87.84
72428;BME280;60419;48.880;18.036;2023-12-20T01:35:54;98924.19;;;0.71;88.37
72428;BME280;60419;48.880;18.036;2023-12-20T01:38:40;98920.19;;;1.52;86.66
72428;BME280;60419;48.880;18.036;2023-12-20T01:41:25;98928.72;;;1.32;86.01
72428;BME280;60419;48.880;18.036;2023-12-20T01:44:11;98907.03;;;0.79;86.99
72428;BME280;60419;48.880;18.036;2023-12-20T01:46:56;98912.47;;;1.06;86.99
72428;BME280;60419;48.880;18.036;2023-12-20T01:49:43;98917.81;;;0.89;87.56
72428;BME280;60419;48.880;18.036;2023-12-20T01:52:28;98898.75;;;0.97;87.66
72428;BME280;60419;48.880;18.036;2023-12-20T01:55:14;98897.72;;;0.43;88.24
72428;BME280;60419;48.880;18.036;2023-12-20T01:58:00;98890.69;;;0.70;88.66
72428;BME280;60419;48.880;18.036;2023-12-20T02:00:46;98882.00;;;0.97;88.12
72428;BME280;60419;48.880;18.036;2023-12-20T02:03:32;98887.53;;;0.73;88.64
72428;BME280;60419;48.880;18.036;2023-12-20T02:06:18;98883.88;;;0.24;89.81
72428;BME280;60419;48.880;18.036;2023-12-20T02:09:04;98867.25;;;0.67;89.23
72428;BME280;60419;48.880;18.036;2023-12-20T02:11:49;98859.72;;;0.42;88.95
72428;BME280;60419;48.880;18.036;2023-12-20T02:14:35;98856.34;;;0.30;90.49
72428;BME280;60419;48.880;18.036;2023-12-20T02:17:20;98859.66;;;0.76;88.64
72428;BME280;60419;48.880;18.036;2023-12-20T02:20:06;98848.34;;;0.47;88.03
72428;BME280;60419;48.880;18.036;2023-12-20T02:22:51;98856.19;;;0.03;90.61
72428;BME280;60419;48.880;18.036;2023-12-20T02:25:37;98842.19;;;0.07;91.42
72428;BME280;60419;48.880;18.036;2023-12-20T02:28:22;98838.41;;;-0.14;91.60
72428;BME280;60419;48.880;18.036;2023-12-20T02:31:08;98847.56;;;0.29;91.08
72428;BME280;60419;48.880;18.036;2023-12-20T02:33:54;98848.38;;;0.13;91.47
72428;BME280;60419;48.880;18.036;2023-12-20T02:36:39;98846.66;;;0.41;90.95
72428;BME280;60419;48.880;18.036;2023-12-20T02:39:24;98857.00;;;0.76;89.23
72428;BME280;60419;48.880;18.036;2023-12-20T02:42:10;98844.59;;;0.26;89.25
72428;BME280;60419;48.880;18.036;2023-12-20T02:44:55;98844.69;;;0.31;90.63
72428;BME280;60419;48.880;18.036;2023-12-20T02:47:40;98846.69;;;0.07;91.25
72428;BME280;60419;48.880;18.036;2023-12-20T02:50:26;98842.69;;;0.04;91.72
72428;BME280;60419;48.880;18.036;2023-12-20T02:53:11;98846.03;;;0.17;91.52
72428;BME280;60419;48.880;18.036;2023-12-20T02:55:57;98834.78;;;0.26;90.68
72428;BME280;60419;48.880;18.036;2023-12-20T02:58:42;98839.97;;;0.38;90.68
72428;BME280;60419;48.880;18.036;2023-12-20T03:01:28;98837.16;;;0.45;89.66
72428;BME280;60419;48.880;18.036;2023-12-20T03:04:14;98833.31;;;0.19;89.93
72428;BME280;60419;48.880;18.036;2023-12-20T03:06:59;98819.16;;;-0.04;91.48
72428;BME280;60419;48.880;18.036;2023-12-20T03:09:45;98825.66;;;-0.12;92.92
72428;BME280;60419;48.880;18.036;2023-12-20T03:12:30;98825.97;;;-0.42;92.68
72428;BME280;60419;48.880;18.036;2023-12-20T03:15:15;98796.63;;;-0.81;93.26
72428;BME280;60419;48.880;18.036;2023-12-20T03:18:01;98824.09;;;-0.58;94.10
72428;BME280;60419;48.880;18.036;2023-12-20T03:20:46;98825.38;;;-0.61;94.25
72428;BME280;60419;48.880;18.036;2023-12-20T03:23:35;98814.66;;;-0.66;95.00
72428;BME280;60419;48.880;18.036;2023-12-20T03:26:20;98812.81;;;-0.65;95.32
72428;BME280;60419;48.880;18.036;2023-12-20T03:29:07;98826.28;;;-0.38;95.27
72428;BME280;60419;48.880;18.036;2023-12-20T03:31:52;98814.25;;;-0.29;94.15
72428;BME280;60419;48.880;18.036;2023-12-20T03:34:38;98816.72;;;-0.39;93.89
72428;BME280;60419;48.880;18.036;2023-12-20T03:37:23;98808.47;;;-0.26;94.18
72428;BME280;60419;48.880;18.036;2023-12-20T03:40:09;98801.69;;;-0.33;93.77
72428;BME280;60419;48.880;18.036;2023-12-20T03:42:54;98803.56;;;-0.00;93.61
72428;BME280;60419;48.880;18.036;2023-12-20T03:45:40;98814.09;;;0.12;93.03
72428;BME280;60419;48.880;18.036;2023-12-20T03:48:25;98815.94;;;0.11;92.08
72428;BME280;60419;48.880;18.036;2023-12-20T03:51:11;98812.47;;;-0.06;92.26
72428;BME280;60419;48.880;18.036;2023-12-20T03:53:57;98814.88;;;0.12;91.58
72428;BME280;60419;48.880;18.036;2023-12-20T03:56:42;98820.44;;;-0.06;91.27
72428;BME280;60419;48.880;18.036;2023-12-20T03:59:28;98805.66;;;-0.02;91.97
72428;BME280;60419;48.880;18.036;2023-12-20T04:02:13;98802.41;;;0.68;89.46
72428;BME280;60419;48.880;18.036;2023-12-20T04:04:59;98791.94;;;1.06;88.05
72428;BME280;60419;48.880;18.036;2023-12-20T04:07:44;98783.38;;;0.38;88.85
72428;BME280;60419;48.880;18.036;2023-12-20T04:10:29;98799.81;;;0.73;89.88
72428;BME280;60419;48.880;18.036;2023-12-20T04:13:15;98803.91;;;0.42;89.31
72428;BME280;60419;48.880;18.036;2023-12-20T04:16:00;98803.25;;;0.52;89.65
72428;BME280;60419;48.880;18.036;2023-12-20T04:18:46;98797.28;;;0.84;88.76
72428;BME280;60419;48.880;18.036;2023-12-20T04:21:31;98787.03;;;0.53;90.04
72428;BME280;60419;48.880;18.036;2023-12-20T04:24:16;98780.94;;;0.97;88.29
72428;BME280;60419;48.880;18.036;2023-12-20T04:27:02;98781.44;;;0.94;87.06
72428;BME280;60419;48.880;18.036;2023-12-20T04:29:47;98767.78;;;0.63;87.82
72428;BME280;60419;48.880;18.036;2023-12-20T04:32:33;98783.44;;;0.43;88.82
72428;BME280;60419;48.880;18.036;2023-12-20T04:35:18;98781.94;;;0.30;90.16
72428;BME280;60419;48.880;18.036;2023-12-20T04:38:03;98752.78;;;-0.21;91.36
72428;BME280;60419;48.880;18.036;2023-12-20T04:40:49;98754.00;;;-0.45;92.64
72428;BME280;60419;48.880;18.036;2023-12-20T04:43:34;98753.47;;;0.08;92.03
72428;BME280;60419;48.880;18.036;2023-12-20T04:46:20;98741.88;;;0.15;91.19
72428;BME280;60419;48.880;18.036;2023-12-20T04:49:05;98753.09;;;-0.17;92.61
72428;BME280;60419;48.880;18.036;2023-12-20T04:51:51;98753.38;;;0.59;90.80
72428;BME280;60419;48.880;18.036;2023-12-20T04:54:36;98763.53;;;0.45;90.16
72428;BME280;60419;48.880;18.036;2023-12-20T04:57:22;98756.22;;;0.52;88.91
72428;BME280;60419;48.880;18.036;2023-12-20T05:00:08;98771.22;;;0.42;89.64
72428;BME280;60419;48.880;18.036;2023-12-20T05:02:53;98765.53;;;0.33;90.01
72428;BME280;60419;48.880;18.036;2023-12-20T05:05:39;98752.38;;;0.04;90.97
72428;BME280;60419;48.880;18.036;2023-12-20T05:08:24;98759.84;;;0.46;90.53
72428;BME280;60419;48.880;18.036;2023-12-20T05:11:10;98763.69;;;0.34;88.69
72428;BME280;60419;48.880;18.036;2023-12-20T05:13:55;98751.63;;;0.48;89.71
72428;BME280;60419;48.880;18.036;2023-12-20T05:16:41;98760.06;;;0.62;88.98
72428;BME280;60419;48.880;18.036;2023-12-20T05:19:26;98777.03;;;0.61;86.54
72428;BME280;60419;48.880;18.036;2023-12-20T05:22:12;98782.78;;;0.14;87.72
72428;BME280;60419;48.880;18.036;2023-12-20T05:24:57;98763.94;;;0.54;87.73
72428;BME280;60419;48.880;18.036;2023-12-20T05:27:42;98786.50;;;0.13;88.46
72428;BME280;60419;48.880;18.036;2023-12-20T05:30:28;98782.06;;;0.18;89.12
72428;BME280;60419;48.880;18.036;2023-12-20T05:33:13;98785.94;;;0.71;87.36
72428;BME280;60419;48.880;18.036;2023-12-20T05:35:58;98788.53;;;0.66;86.76
72428;BME280;60419;48.880;18.036;2023-12-20T05:38:44;98782.63;;;0.81;85.51
72428;BME280;60419;48.880;18.036;2023-12-20T05:41:30;98768.25;;;0.82;86.09
72428;BME280;60419;48.880;18.036;2023-12-20T05:44:17;98745.16;;;0.83;84.76
72428;BME280;60419;48.880;18.036;2023-12-20T05:47:02;98750.06;;;0.30;86.63
72428;BME280;60419;48.880;18.036;2023-12-20T05:49:48;98741.75;;;0.04;86.97
72428;BME280;60419;48.880;18.036;2023-12-20T05:52:33;98727.56;;;-0.01;89.83
72428;BME280;60419;48.880;18.036;2023-12-20T05:55:18;98721.72;;;0.58;87.19
72428;BME280;60419;48.880;18.036;2023-12-20T05:58:04;98718.66;;;0.93;86.26
72428;BME280;60419;48.880;18.036;2023-12-20T06:00:50;98723.13;;;0.65;86.09
72428;BME280;60419;48.880;18.036;2023-12-20T06:03:35;98716.41;;;0.58;85.75
72428;BME280;60419;48.880;18.036;2023-12-20T06:06:21;98720.06;;;0.51;86.47
72428;BME280;60419;48.880;18.036;2023-12-20T06:09:06;98710.97;;;0.25;86.83
72428;BME280;60419;48.880;18.036;2023-12-20T06:11:51;98718.00;;;0.37;86.13
72428;BME280;60419;48.880;18.036;2023-12-20T06:14:37;98711.47;;;0.05;87.46
72428;BME280;60419;48.880;18.036;2023-12-20T06:17:22;98712.78;;;0.25;88.23
72428;BME280;60419;48.880;18.036;2023-12-20T06:20:08;98719.88;;;-0.03;87.36
72428;BME280;60419;48.880;18.036;2023-12-20T06:22:54;98719.91;;;0.19;86.95
72428;BME280;60419;48.880;18.036;2023-12-20T06:25:39;98721.81;;;0.24;86.98
72428;BME280;60419;48.880;18.036;2023-12-20T06:28:24;98730.19;;;-0.23;88.03
72428;BME280;60419;48.880;18.036;2023-12-20T06:31:10;98735.72;;;-0.59;90.70
72428;BME280;60419;48.880;18.036;2023-12-20T06:33:55;98740.16;;;-0.47;91.27
72428;BME280;60419;48.880;18.036;2023-12-20T06:36:42;98734.91;;;1.51;99.25
72428;BME280;60419;48.880;18.036;2023-12-20T06:39:28;98732.09;;;3.67;100.00
72428;BME280;60419;48.880;18.036;2023-12-20T06:42:14;98735.50;;;3.16;85.85
72428;BME280;60419;48.880;18.036;2023-12-20T06:44:59;98729.00;;;2.18;84.05
72428;BME280;60419;48.880;18.036;2023-12-20T06:47:45;98729.59;;;0.74;84.92
72428;BME280;60419;48.880;18.036;2023-12-20T06:50:30;98742.97;;;0.80;85.68
72428;BME280;60419;48.880;18.036;2023-12-20T06:53:15;98745.28;;;0.98;84.86
72428;BME280;60419;48.880;18.036;2023-12-20T06:56:01;98737.75;;;0.90;85.48
72428;BME280;60419;48.880;18.036;2023-12-20T06:58:47;98739.63;;;0.89;86.06
72428;BME280;60419;48.880;18.036;2023-12-20T07:01:33;98734.47;;;1.05;85.14
72428;BME280;60419;48.880;18.036;2023-12-20T07:04:18;98727.94;;;1.17;84.93
72428;BME280;60419;48.880;18.036;2023-12-20T07:07:06;98728.78;;;3.03;93.37
72428;BME280;60419;48.880;18.036;2023-12-20T07:09:52;98733.34;;;3.08;86.50
72428;BME280;60419;48.880;18.036;2023-12-20T07:12:37;98737.59;;;1.88;81.14
72428;BME280;60419;48.880;18.036;2023-12-20T07:15:23;98723.84;;;1.37;82.89
72428;BME280;60419;48.880;18.036;2023-12-20T07:18:08;98726.03;;;1.40;82.90
72428;BME280;60419;48.880;18.036;2023-12-20T07:20:53;98726.38;;;1.49;82.80
72428;BME280;60419;48.880;18.036;2023-12-20T07:23:40;98725.47;;;1.38;82.47
72428;BME280;60419;48.880;18.036;2023-12-20T07:26:25;98724.22;;;1.46;82.34
72428;BME280;60419;48.880;18.036;2023-12-20T07:29:11;98729.91;;;3.23;92.24
72428;BME280;60419;48.880;18.036;2023-12-20T07:31:56;98733.84;;;2.89;78.88
72428;BME280;60419;48.880;18.036;2023-12-20T07:34:42;98759.31;;;1.75;79.99
72428;BME280;60419;48.880;18.036;2023-12-20T07:37:27;98766.22;;;1.71;80.92
72428;BME280;60419;48.880;18.036;2023-12-20T07:40:12;98770.53;;;1.17;82.75
72428;BME280;60419;48.880;18.036;2023-12-20T07:42:58;98761.69;;;0.90;84.08
72428;BME280;60419;48.880;18.036;2023-12-20T07:45:43;98764.53;;;1.05;83.27
72428;BME280;60419;48.880;18.036;2023-12-20T07:48:29;98761.06;;;1.05;83.85
72428;BME280;60419;48.880;18.036;2023-12-20T07:51:14;98771.75;;;0.83;84.58
72428;BME280;60419;48.880;18.036;2023-12-20T07:53:59;98788.25;;;0.46;86.19
72428;BME280;60419;48.880;18.036;2023-12-20T07:56:46;98780.63;;;0.11;88.00
72428;BME280;60419;48.880;18.036;2023-12-20T07:59:31;98780.75;;;0.21;89.09
72428;BME280;60419;48.880;18.036;2023-12-20T08:02:17;98768.31;;;0.43;88.89
72428;BME280;60419;48.880;18.036;2023-12-20T08:05:02;98766.16;;;0.84;87.73
72428;BME280;60419;48.880;18.036;2023-12-20T08:07:48;98774.38;;;0.61;87.42
72428;BME280;60419;48.880;18.036;2023-12-20T08:10:33;98778.88;;;0.82;86.77
72428;BME280;60419;48.880;18.036;2023-12-20T08:13:19;98787.72;;;1.37;85.89
72428;BME280;60419;48.880;18.036;2023-12-20T08:16:04;98783.19;;;0.83;85.48
72428;BME280;60419;48.880;18.036;2023-12-20T08:18:50;98790.44;;;1.15;86.03
72428;BME280;60419;48.880;18.036;2023-12-20T08:21:36;98791.81;;;0.95;84.87
72428;BME280;60419;48.880;18.036;2023-12-20T08:24:21;98802.78;;;0.99;86.42
72428;BME280;60419;48.880;18.036;2023-12-20T08:27:06;98803.81;;;0.54;87.40
72428;BME280;60419;48.880;18.036;2023-12-20T08:29:52;98795.66;;;1.05;87.34
72428;BME280;60419;48.880;18.036;2023-12-20T08:32:37;98799.16;;;1.10;86.99
72428;BME280;60419;48.880;18.036;2023-12-20T08:35:22;98803.19;;;1.13;85.76
72428;BME280;60419;48.880;18.036;2023-12-20T08:38:09;98796.78;;;1.09;85.57
72428;BME280;60419;48.880;18.036;2023-12-20T08:40:54;98786.00;;;0.99;85.67
72428;BME280;60419;48.880;18.036;2023-12-20T08:43:40;98801.03;;;1.37;85.12
72428;BME280;60419;48.880;18.036;2023-12-20T08:46:25;98793.78;;;1.05;85.25
72428;BME280;60419;48.880;18.036;2023-12-20T08:49:10;98788.28;;;0.90;85.88
72428;BME280;60419;48.880;18.036;2023-12-20T08:51:56;98791.41;;;0.60;86.91
72428;BME280;60419;48.880;18.036;2023-12-20T08:54:41;98787.44;;;0.62;88.26
72428;BME280;60419;48.880;18.036;2023-12-20T08:57:27;98787.44;;;0.84;87.37
72428;BME280;60419;48.880;18.036;2023-12-20T09:00:13;98757.72;;;0.92;87.49
72428;BME280;60419;48.880;18.036;2023-12-20T09:02:59;98781.56;;;1.31;85.72
72428;BME280;60419;48.880;18.036;2023-12-20T09:05:44;98787.78;;;1.15;85.73
72428;BME280;60419;48.880;18.036;2023-12-20T09:08:29;98775.00;;;0.68;86.94
72428;BME280;60419;48.880;18.036;2023-12-20T09:11:15;98786.94;;;0.65;87.50
72428;BME280;60419;48.880;18.036;2023-12-20T09:14:00;98782.34;;;0.39;88.10
72428;BME280;60419;48.880;18.036;2023-12-20T09:16:46;98779.63;;;0.56;88.51
72428;BME280;60419;48.880;18.036;2023-12-20T09:19:31;98785.66;;;0.29;89.82
72428;BME280;60419;48.880;18.036;2023-12-20T09:22:16;98776.25;;;0.21;90.59
72428;BME280;60419;48.880;18.036;2023-12-20T09:25:02;98776.19;;;0.38;89.81
72428;BME280;60419;48.880;18.036;2023-12-20T09:27:48;98779.22;;;0.25;89.65
72428;BME280;60419;48.880;18.036;2023-12-20T09:30:33;98776.63;;;0.30;90.39
72428;BME280;60419;48.880;18.036;2023-12-20T09:33:20;98740.91;;;0.21;90.64
72428;BME280;60419;48.880;18.036;2023-12-20T09:36:06;98775.81;;;0.46;90.44
72428;BME280;60419;48.880;18.036;2023-12-20T09:38:51;98766.31;;;0.72;89.04
72428;BME280;60419;48.880;18.036;2023-12-20T09:41:41;98757.56;;;0.99;88.82
72428;BME280;60419;48.880;18.036;2023-12-20T09:44:28;98761.13;;;1.37;87.61
72428;BME280;60419;48.880;18.036;2023-12-20T09:47:15;98755.25;;;1.08;88.73
72428;BME280;60419;48.880;18.036;2023-12-20T09:50:02;98752.34;;;1.36;86.91
72428;BME280;60419;48.880;18.036;2023-12-20T09:52:52;98752.84;;;0.84;87.10
72428;BME280;60419;48.880;18.036;2023-12-20T09:55:41;98738.50;;;1.39;86.19
72428;BME280;60419;48.880;18.036;2023-12-20T09:58:27;98732.47;;;1.17;86.36
72428;BME280;60419;48.880;18.036;2023-12-20T10:01:13;98742.31;;;1.16;86.33
72428;BME280;60419;48.880;18.036;2023-12-20T10:04:00;98710.06;;;0.86;86.73
72428;BME280;60419;48.880;18.036;2023-12-20T10:06:45;98722.41;;;1.24;87.20
72428;BME280;60419;48.880;18.036;2023-12-20T10:09:31;98732.66;;;1.37;85.54
72428;BME280;60419;48.880;18.036;2023-12-20T10:12:17;98731.06;;;1.09;86.99
72428;BME280;60419;48.880;18.036;2023-12-20T10:15:02;98737.22;;;1.15;87.45
72428;BME280;60419;48.880;18.036;2023-12-20T10:17:49;98715.91;;;1.42;86.41
72428;BME280;60419;48.880;18.036;2023-12-20T10:20:34;98732.84;;;1.63;84.15
72428;BME280;60419;48.880;18.036;2023-12-20T10:23:19;98727.50;;;1.58;84.65
72428;BME280;60419;48.880;18.036;2023-12-20T10:26:05;98729.22;;;1.42;84.99
72428;BME280;60419;48.880;18.036;2023-12-20T10:28:59;98732.41;;;1.39;84.81
72428;BME280;60419;48.880;18.036;2023-12-20T10:31:45;98725.44;;;1.65;85.05
72428;BME280;60419;48.880;18.036;2023-12-20T10:34:32;98716.84;;;1.90;83.30
72428;BME280;60419;48.880;18.036;2023-12-20T10:37:18;98714.25;;;1.04;85.56
72428;BME280;60419;48.880;18.036;2023-12-20T10:40:04;98713.81;;;1.81;84.65
72428;BME280;60419;48.880;18.036;2023-12-20T10:42:51;98706.09;;;2.27;83.07
72428;BME280;60419;48.880;18.036;2023-12-20T10:45:37;98703.28;;;2.44;82.10
72428;BME280;60419;48.880;18.036;2023-12-20T10:48:23;98702.28;;;2.66;80.75
72428;BME280;60419;48.880;18.036;2023-12-20T10:51:17;98697.75;;;2.71;79.58
72428;BME280;60419;48.880;18.036;2023-12-20T10:54:03;98696.75;;;2.98;79.54
72428;BME280;60419;48.880;18.036;2023-12-20T10:56:51;98708.25;;;3.19;78.97
72428;BME280;60419;48.880;18.036;2023-12-20T10:59:37;98677.09;;;2.41;81.33
72428;BME280;60419;48.880;18.036;2023-12-20T11:02:25;98688.13;;;2.55;82.22
72428;BME280;60419;48.880;18.036;2023-12-20T11:08:17;98687.72;;;3.25;79.93
72428;BME280;60419;48.880;18.036;2023-12-20T11:11:18;98687.22;;;3.38;79.73
72428;BME280;60419;48.880;18.036;2023-12-20T11:14:20;98674.00;;;2.55;81.40
72428;BME280;60419;48.880;18.036;2023-12-20T11:17:08;98682.53;;;2.62;83.59
72428;BME280;60419;48.880;18.036;2023-12-20T11:22:53;98678.09;;;3.13;81.13
72428;BME280;60419;48.880;18.036;2023-12-20T11:26:05;98671.41;;;2.95;81.63
72428;BME280;60419;48.880;18.036;2023-12-20T11:28:50;98661.75;;;2.69;83.05
72428;BME280;60419;48.880;18.036;2023-12-20T11:31:40;98641.50;;;2.93;82.16
72428;BME280;60419;48.880;18.036;2023-12-20T11:34:32;98673.31;;;3.26;81.67
72428;BME280;60419;48.880;18.036;2023-12-20T11:37:20;98671.69;;;3.25;82.34
72428;BME280;60419;48.880;18.036;2023-12-20T11:40:06;98668.78;;;3.26;80.70
72428;BME280;60419;48.880;18.036;2023-12-20T11:42:54;98666.34;;;2.94;82.53
72428;BME280;60419;48.880;18.036;2023-12-20T11:45:49;98662.38;;;3.37;81.37
72428;BME280;60419;48.880;18.036;2023-12-20T11:48:37;98650.09;;;3.21;82.83
72428;BME280;60419;48.880;18.036;2023-12-20T11:51:23;98653.84;;;3.41;83.14
72428;BME280;60419;48.880;18.036;2023-12-20T11:54:08;98638.84;;;3.65;82.55
72428;BME280;60419;48.880;18.036;2023-12-20T11:56:54;98640.22;;;3.27;83.65
72428;BME280;60419;48.880;18.036;2023-12-20T11:59:39;98630.06;;;3.44;84.60
72428;BME280;60419;48.880;18.036;2023-12-20T12:02:25;98620.53;;;4.13;81.90
72428;BME280;60419;48.880;18.036;2023-12-20T12:05:10;98613.38;;;4.03;81.60
72428;BME280;60419;48.880;18.036;2023-12-20T12:07:56;98621.59;;;4.17;81.78
72428;BME280;60419;48.880;18.036;2023-12-20T12:10:41;98623.84;;;3.79;84.09
72428;BME280;60419;48.880;18.036;2023-12-20T12:13:27;98615.63;;;3.45;84.89
72428;BME280;60419;48.880;18.036;2023-12-20T12:16:17;98615.84;;;3.69;85.49
72428;BME280;60419;48.880;18.036;2023-12-20T12:19:02;98609.31;;;4.16;84.12
72428;BME280;60419;48.880;18.036;2023-12-20T12:21:50;98616.00;;;4.19;83.14
72428;BME280;60419;48.880;18.036;2023-12-20T12:24:36;98606.94;;;4.10;83.95
72428;BME280;60419;48.880;18.036;2023-12-20T12:27:22;98607.63;;;4.36;82.97
72428;BME280;60419;48.880;18.036;2023-12-20T12:30:08;98591.97;;;4.63;82.11
72428;BME280;60419;48.880;18.036;2023-12-20T12:32:56;98607.09;;;4.78;81.92
72428;BME280;60419;48.880;18.036;2023-12-20T12:35:41;98610.66;;;5.13;81.16
72428;BME280;60419;48.880;18.036;2023-12-20T12:38:27;98612.91;;;5.59;79.30
72428;BME280;60419;48.880;18.036;2023-12-20T12:41:13;98619.31;;;5.00;80.48
72428;BME280;60419;48.880;18.036;2023-12-20T12:44:00;98617.19;;;4.91;81.26
72428;BME280;60419;48.880;18.036;2023-12-20T12:46:46;98610.09;;;5.45;79.53
72428;BME280;60419;48.880;18.036;2023-12-20T12:49:32;98602.69;;;5.37;80.20
72428;BME280;60419;48.880;18.036;2023-12-20T12:52:17;98605.63;;;5.65;79.78
72428;BME280;60419;48.880;18.036;2023-12-20T12:55:03;98600.88;;;5.56;79.36
72428;BME280;60419;48.880;18.036;2023-12-20T12:57:49;98579.28;;;5.72;78.94
72428;BME280;60419;48.880;18.036;2023-12-20T13:00:35;98589.31;;;5.85;78.58
72428;BME280;60419;48.880;18.036;2023-12-20T13:03:20;98579.59;;;5.70;79.40
72428;BME280;60419;48.880;18.036;2023-12-20T13:06:06;98571.03;;;5.68;79.94
72428;BME280;60419;48.880;18.036;2023-12-20T13:08:53;98561.72;;;6.09;78.60
72428;BME280;60419;48.880;18.036;2023-12-20T13:11:39;98561.88;;;5.93;79.08
72428;BME280;60419;48.880;18.036;2023-12-20T13:14:25;98570.22;;;6.16;78.32
72428;BME280;60419;48.880;18.036;2023-12-20T13:17:10;98576.31;;;5.49;75.54
72428;BME280;60419;48.880;18.036;2023-12-20T13:19:55;98575.97;;;5.56;78.72
72428;BME280;60419;48.880;18.036;2023-12-20T13:22:41;98579.41;;;5.32;77.76
72428;BME280;60419;48.880;18.036;2023-12-20T13:25:26;98575.28;;;5.16;77.41
72428;BME280;60419;48.880;18.036;2023-12-20T13:28:11;98562.06;;;5.25;75.83
72428;BME280;60419;48.880;18.036;2023-12-20T13:30:57;98559.03;;;5.37;79.71
72428;BME280;60419;48.880;18.036;2023-12-20T13:33:42;98585.34;;;5.29;76.90
72428;BME280;60419;48.880;18.036;2023-12-20T13:36:28;98597.75;;;5.15;77.57
72428;BME280;60419;48.880;18.036;2023-12-20T13:39:13;98603.03;;;5.25;76.79
72428;BME280;60419;48.880;18.036;2023-12-20T13:41:59;98577.63;;;5.52;75.21
72428;BME280;60419;48.880;18.036;2023-12-20T13:44:44;98609.75;;;5.81;74.99
72428;BME280;60419;48.880;18.036;2023-12-20T13:47:29;98612.88;;;5.35;76.26
72428;BME280;60419;48.880;18.036;2023-12-20T13:50:15;98606.97;;;5.62;76.46
72428;BME280;60419;48.880;18.036;2023-12-20T13:53:00;98620.75;;;6.04;76.27
72428;BME280;60419;48.880;18.036;2023-12-20T13:55:46;98592.97;;;6.18;75.65
72428;BME280;60419;48.880;18.036;2023-12-20T13:58:31;98620.63;;;5.66;77.40
72428;BME280;60419;48.880;18.036;2023-12-20T14:01:17;98626.09;;;5.55;79.16
72428;BME280;60419;48.880;18.036;2023-12-20T14:04:02;98628.41;;;6.15;77.21
72428;BME280;60419;48.880;18.036;2023-12-20T14:06:48;98621.00;;;5.25;79.41
72428;BME280;60419;48.880;18.036;2023-12-20T14:09:33;98622.44;;;5.12;80.19
72428;BME280;60419;48.880;18.036;2023-12-20T14:12:19;98613.84;;;6.21;88.84
72428;BME280;60419;48.880;18.036;2023-12-20T14:15:06;98612.75;;;6.47;76.65
72428;BME280;60419;48.880;18.036;2023-12-20T14:17:56;98622.63;;;6.51;74.45
72428;BME280;60419;48.880;18.036;2023-12-20T14:20:41;98628.41;;;6.58;74.14
72428;BME280;60419;48.880;18.036;2023-12-20T14:23:27;98631.78;;;6.26;72.50
72428;BME280;60419;48.880;18.036;2023-12-20T14:26:12;98624.97;;;6.34;72.79
72428;BME280;60419;48.880;18.036;2023-12-20T14:28:59;98619.28;;;6.59;73.20
72428;BME280;60419;48.880;18.036;2023-12-20T14:31:45;98621.88;;;6.83;72.90
72428;BME280;60419;48.880;18.036;2023-12-20T14:34:30;98622.91;;;6.87;70.67
72428;BME280;60419;48.880;18.036;2023-12-20T14:37:15;98632.91;;;6.82;70.97
72428;BME280;60419;48.880;18.036;2023-12-20T14:40:02;98623.03;;;6.58;73.76
72428;BME280;60419;48.880;18.036;2023-12-20T14:42:48;98627.19;;;6.70;73.43
72428;BME280;60419;48.880;18.036;2023-12-20T14:45:34;98626.66;;;6.86;72.25